Time;durP1;ratioP1;P1;durP2;ratioP2;P2;SDS_P1;SDS_P2;PMS_P1;PMS_P2;Temp;Humidity;BMP_temperature;BMP_pressure;BME280_temperature;BME280_humidity;BME280_pressure;Samples;Min_cycle;Max_cycle;Signal;HPM_P1;HPM_P2
2022/04/02 00:00:22;;;;;;;7.85;2.30;;;;;;;1.58;49.11;99843.81;4874378;29;20411;-73
2022/04/02 00:02:47;;;;;;;5.47;2.22;;;;;;;1.57;48.96;99835.13;4879757;29;20140;-73
2022/04/02 00:05:12;;;;;;;4.78;1.90;;;;;;;1.54;49.72;99837.66;4878328;29;20455;-74
2022/04/02 00:07:38;;;;;;;6.50;2.35;;;;;;;1.49;50.13;99834.09;4877462;29;20045;-73
2022/04/02 00:10:05;;;;;;;6.38;2.20;;;;;;;1.51;49.85;99837.63;4877143;29;20033;-74
2022/04/02 00:12:31;;;;;;;7.68;2.25;;;;;;;1.62;48.83;99835.22;4861313;29;20056;-74
2022/04/02 00:14:56;;;;;;;6.85;2.00;;;;;;;1.59;48.76;99841.25;4862505;29;20037;-73
2022/04/02 00:17:23;;;;;;;7.47;2.22;;;;;;;1.62;48.81;99838.69;4876429;29;20815;-74
2022/04/02 00:19:48;;;;;;;5.70;2.28;;;;;;;1.63;48.87;99842.19;4877929;29;20068;-73
2022/04/02 00:22:14;;;;;;;5.95;2.53;;;;;;;1.58;48.72;99855.09;4877877;29;20065;-74
2022/04/02 00:24:39;;;;;;;6.80;2.03;;;;;;;1.58;48.85;99852.50;4869925;29;20504;-73
2022/04/02 00:27:04;;;;;;;7.45;2.50;;;;;;;1.47;49.71;99851.44;4877228;29;20040;-75
2022/04/02 00:29:29;;;;;;;6.50;2.35;;;;;;;1.53;49.71;99856.75;4876853;29;20033;-74
2022/04/02 00:31:55;;;;;;;7.43;2.33;;;;;;;1.50;48.88;99862.75;4860904;29;20056;-74
2022/04/02 00:34:21;;;;;;;8.20;2.47;;;;;;;1.64;49.26;99863.00;4874365;29;20108;-74
2022/04/02 00:36:46;;;;;;;7.25;2.15;;;;;;;1.61;49.65;99860.34;4877977;29;20045;-74
2022/04/02 00:39:11;;;;;;;5.55;2.22;;;;;;;1.62;49.19;99862.09;4877133;29;20408;-74
2022/04/02 00:41:37;;;;;;;9.48;2.17;;;;;;;1.64;49.28;99860.41;4876627;29;20045;-74
2022/04/02 00:44:11;;;;;;;7.80;3.33;;;;;;;1.67;49.08;99859.59;4861185;29;20496;-74
2022/04/02 00:46:39;;;;;;;6.25;2.45;;;;;;;1.60;49.02;99863.81;4863292;29;20071;-74
2022/04/02 00:49:06;;;;;;;5.85;2.38;;;;;;;1.62;49.34;99863.81;4877465;29;20116;-74
2022/04/02 00:51:36;;;;;;;5.75;2.47;;;;;;;1.66;49.22;99876.94;4861492;29;20029;-73
2022/04/02 00:54:02;;;;;;;9.48;2.15;;;;;;;1.75;49.36;99874.50;4876463;29;20092;-74
2022/04/02 00:56:27;;;;;;;4.95;2.22;;;;;;;1.72;49.48;99877.03;4877316;29;20041;-74
2022/04/02 00:58:53;;;;;;;4.78;1.90;;;;;;;1.62;49.42;99872.50;4877484;29;20044;-74
2022/04/02 01:01:18;;;;;;;6.57;2.33;;;;;;;1.61;49.34;99875.97;4876474;29;20048;-74
2022/04/02 01:03:48;;;;;;;6.35;3.00;;;;;;;1.60;49.52;99879.44;4860118;29;20083;-74
2022/04/02 01:06:14;;;;;;;12.05;7.10;;;;;;;1.65;49.38;99875.19;4867096;29;20084;-74
2022/04/02 01:08:40;;;;;;;6.82;2.80;;;;;;;1.61;49.81;99880.28;4877290;29;20408;-73
2022/04/02 01:11:07;;;;;;;5.97;2.33;;;;;;;1.65;49.41;99876.88;4876999;29;20185;-73
2022/04/02 01:13:34;;;;;;;7.90;2.08;;;;;;;1.61;49.07;99877.69;4865739;29;20120;-73
2022/04/02 01:16:03;;;;;;;7.97;2.22;;;;;;;1.45;49.26;99879.13;4846025;29;20040;-73
2022/04/02 01:18:29;;;;;;;6.40;2.17;;;;;;;1.42;49.83;99892.06;4856506;29;20405;-74
2022/04/02 01:20:55;;;;;;;6.63;2.13;;;;;;;1.30;49.95;99890.06;4859289;29;20513;-73
2022/04/02 01:23:29;;;;;;;5.53;2.20;;;;;;;1.14;50.54;99893.19;4867903;29;20385;-74
2022/04/02 01:26:01;;;;;;;6.13;2.38;;;;;;;1.00;51.58;99891.19;4882817;29;20084;-73
2022/04/02 01:28:34;;;;;;;4.32;2.05;;;;;;;1.00;51.13;99890.31;4867939;29;20119;-74
2022/04/02 01:31:04;;;;;;;4.90;1.95;;;;;;;0.92;51.44;99895.34;4879193;29;20040;-73
2022/04/02 01:33:29;;;;;;;5.05;2.10;;;;;;;0.73;52.10;99896.59;4883425;29;20047;-74
2022/04/02 01:36:00;;;;;;;4.70;2.13;;;;;;;0.63;52.17;99905.06;4881308;29;20025;-74
2022/04/02 01:38:28;;;;;;;5.35;2.15;;;;;;;0.56;52.59;99892.75;4869938;29;20431;-74
2022/04/02 01:40:56;;;;;;;5.50;1.90;;;;;;;0.60;52.04;99897.16;4867679;29;20037;-73
2022/04/02 01:43:27;;;;;;;6.43;2.40;;;;;;;0.54;52.35;99897.03;4866726;29;20033;-73
2022/04/02 01:45:56;;;;;;;4.67;1.77;;;;;;;0.50;52.22;99897.78;4866205;29;20029;-74
2022/04/02 01:48:25;;;;;;;5.43;2.10;;;;;;;0.49;52.69;99896.03;4868735;29;20048;-73
2022/04/02 01:50:57;;;;;;;6.53;1.98;;;;;;;0.40;53.62;99902.75;4870014;29;20119;-73
2022/04/02 01:53:24;;;;;;;5.00;1.83;;;;;;;0.31;53.81;99907.72;4880230;29;20065;-74
2022/04/02 01:55:51;;;;;;;5.77;2.00;;;;;;;0.41;53.22;99909.69;4877807;29;20398;-74
2022/04/02 01:58:34;;;;;;;6.63;2.27;;;;;;;0.36;53.55;99905.25;4866229;29;20033;-74
2022/04/02 02:01:02;;;;;;;5.77;2.27;;;;;;;0.39;52.97;99903.63;4864993;29;20033;-74
2022/04/02 02:03:28;;;;;;;7.10;2.23;;;;;;;0.43;52.92;99913.22;4863635;29;20052;-74
2022/04/02 02:05:54;;;;;;;6.43;2.27;;;;;;;0.43;53.61;99910.63;4866043;29;20071;-74
2022/04/02 02:08:20;;;;;;;8.30;1.90;;;;;;;0.42;53.57;99911.47;4866220;29;20504;-74
2022/04/02 02:11:01;;;;;;;6.97;2.10;;;;;;;0.46;53.92;99902.03;4866063;29;20137;-74
2022/04/02 02:13:59;;;;;;;5.70;1.80;;;;;;;0.40;53.38;99909.69;4863862;29;20034;-74
2022/04/02 02:16:25;;;;;;;4.53;1.80;;;;;;;0.38;53.42;99904.44;4865531;29;20037;-74
2022/04/02 02:18:53;;;;;;;7.27;3.53;;;;;;;0.42;53.52;99901.09;4868422;29;20029;-74
2022/04/02 02:21:19;;;;;;;5.50;1.70;;;;;;;0.43;53.74;99902.84;4868290;29;20036;-74
2022/04/02 02:23:44;;;;;;;4.37;1.87;;;;;;;0.32;53.96;99912.09;4882960;29;20040;-74
2022/04/02 02:26:09;;;;;;;6.83;2.17;;;;;;;0.29;53.99;99904.22;4877832;29;20045;-74
2022/04/02 02:28:35;;;;;;;8.63;2.30;;;;;;;0.25;54.25;99901.50;4860901;29;20033;-74
2022/04/02 02:31:01;;;;;;;4.33;1.77;;;;;;;0.34;54.15;99904.31;4871548;29;20029;-74
2022/04/02 02:36:12;;;;;;;3.67;1.70;;;;;;;0.22;55.37;99913.56;4863047;29;20124;-74
2022/04/02 02:38:53;;;;;;;8.73;1.97;;;;;;;0.26;54.99;99917.09;4863299;29;20040;-74
2022/04/02 02:41:26;;;;;;;6.23;1.77;;;;;;;0.25;55.18;99917.94;4862871;29;20061;-74
2022/04/02 02:43:57;;;;;;;6.40;2.10;;;;;;;0.15;55.71;99918.56;4866408;29;20406;-74
2022/04/02 02:46:32;;;;;;;4.10;1.67;;;;;;;0.12;56.15;99918.47;4864305;29;20092;-73
2022/04/02 02:49:02;;;;;;;6.93;1.55;;;;;;;0.20;55.52;99919.56;4860826;29;20032;-73
2022/04/02 02:51:28;;;;;;;6.87;2.23;;;;;;;0.18;55.75;99922.13;4868206;29;20037;-73
2022/04/02 02:53:53;;;;;;;5.43;2.10;;;;;;;0.12;56.29;99926.25;4879529;29;20493;-74
2022/04/02 02:56:19;;;;;;;5.07;1.90;;;;;;;0.10;56.52;99912.38;4864915;29;20049;-73
2022/04/02 02:58:45;;;;;;;6.70;1.80;;;;;;;0.06;56.82;99923.53;4878993;29;20061;-73
2022/04/02 03:01:11;;;;;;;8.03;1.97;;;;;;;0.02;56.54;99937.22;4878987;29;20074;-74
2022/04/02 03:03:38;;;;;;;4.87;1.70;;;;;;;-0.06;57.44;99926.66;4870956;29;20137;-73
2022/04/02 03:06:04;;;;;;;4.73;2.03;;;;;;;-0.10;57.58;99935.19;4848339;29;20029;-74
2022/04/02 03:08:36;;;;;;;5.70;1.52;;;;;;;-0.07;56.90;99941.34;4861145;29;20033;-73
2022/04/02 03:11:02;;;;;;;6.83;1.90;;;;;;;-0.05;57.27;99938.81;4867602;29;20036;-74
2022/04/02 03:13:31;;;;;;;5.87;1.80;;;;;;;-0.08;58.38;99942.19;4864428;29;20044;-73
2022/04/02 03:16:04;;;;;;;5.68;2.08;;;;;;;-0.19;58.28;99930.63;4857175;29;20056;-74
2022/04/02 03:18:29;;;;;;;7.80;2.10;;;;;;;-0.22;58.90;99938.31;4872823;29;20065;-73
2022/04/02 03:20:56;;;;;;;5.63;1.77;;;;;;;-0.21;58.39;99950.44;4874035;29;20511;-73
2022/04/02 03:23:25;;;;;;;5.63;2.40;;;;;;;-0.28;59.09;99941.63;4877310;29;20385;-74
2022/04/02 03:25:51;;;;;;;6.57;1.80;;;;;;;-0.26;59.10;99950.34;4866447;29;20036;-74
2022/04/02 03:28:17;;;;;;;6.10;2.20;;;;;;;-0.32;59.52;99950.16;4863026;29;20041;-73
2022/04/02 03:30:43;;;;;;;6.27;2.07;;;;;;;-0.26;60.53;99949.47;4858303;29;20084;-73
2022/04/02 03:33:10;;;;;;;6.27;2.00;;;;;;;-0.25;60.02;99959.88;4864379;29;20055;-73
2022/04/02 03:35:36;;;;;;;7.23;1.97;;;;;;;-0.35;60.40;99939.69;4861982;29;20064;-73
2022/04/02 03:38:02;;;;;;;5.27;1.90;;;;;;;-0.34;60.72;99948.34;4859943;29;20064;-73
2022/04/02 03:40:28;;;;;;;7.23;2.07;;;;;;;-0.32;61.15;99954.47;4862180;29;20041;-73
2022/04/02 03:42:54;;;;;;;5.70;2.07;;;;;;;-0.35;60.66;99949.19;4864539;29;20043;-73
2022/04/02 03:45:31;;;;;;;6.03;2.30;;;;;;;-0.36;61.37;99950.03;4863120;29;20115;-73
2022/04/02 03:47:57;;;;;;;4.53;2.00;;;;;;;-0.35;61.86;99955.25;4863242;29;20037;-73
2022/04/02 03:50:23;;;;;;;5.63;1.90;;;;;;;-0.35;61.21;99955.25;4864372;29;20064;-73
2022/04/02 03:52:53;;;;;;;8.77;2.10;;;;;;;-0.41;61.80;99955.09;4864907;29;20033;-73
2022/04/02 03:55:24;;;;;;;10.05;2.63;;;;;;;-0.36;62.00;99963.00;4857366;29;20412;-73
2022/04/02 03:57:50;;;;;;;6.27;2.30;;;;;;;-0.33;61.62;99968.28;4881045;29;20132;-74
2022/04/02 04:00:19;;;;;;;10.83;3.83;;;;;;;-0.36;61.57;99971.66;4861278;29;20041;-73
2022/04/02 04:02:53;;;;;;;8.40;4.13;;;;;;;-0.44;62.03;99975.75;4858541;29;20566;-73
2022/04/02 04:05:30;;;;;;;5.23;2.00;;;;;;;-0.44;62.12;99973.16;4876732;29;20460;-74
2022/04/02 04:07:59;;;;;;;20.63;2.93;;;;;;;-0.58;62.85;99959.75;4865433;29;20519;-73
2022/04/02 04:10:25;;;;;;;10.90;2.40;;;;;;;-0.58;62.44;99972.72;4864436;29;20429;-73
2022/04/02 04:12:53;;;;;;;6.70;2.17;;;;;;;-0.59;63.14;99973.56;4860454;29;20036;-73
2022/04/02 04:15:24;;;;;;;6.77;2.20;;;;;;;-0.72;64.23;99966.25;4854170;29;20033;-74
2022/04/02 04:17:49;;;;;;;5.67;2.30;;;;;;;-0.68;64.08;99969.00;4858150;29;20406;-73
2022/04/02 04:20:15;;;;;;;5.97;2.30;;;;;;;-0.69;64.17;99968.94;4878354;29;20033;-74
2022/04/02 04:22:40;;;;;;;7.17;2.53;;;;;;;-0.69;64.24;99972.41;4861410;29;20119;-73
2022/04/02 04:25:10;;;;;;;9.80;2.60;;;;;;;-0.70;64.14;99983.63;4861516;29;20559;-74
2022/04/02 04:27:37;;;;;;;5.57;2.47;;;;;;;-0.69;65.73;99977.59;4862734;29;20576;-73
2022/04/02 04:30:04;;;;;;;8.10;2.40;;;;;;;-0.70;65.33;99981.03;4857148;29;20412;-73
2022/04/02 04:32:30;;;;;;;5.70;2.10;;;;;;;-0.64;64.75;99985.50;4857269;29;20074;-73
2022/04/02 04:34:55;;;;;;;6.63;3.10;;;;;;;-0.67;65.69;99983.72;4861233;29;20044;-74
2022/04/02 04:37:20;;;;;;;6.90;3.00;;;;;;;-0.72;65.57;99990.47;4861248;29;20041;-73
2022/04/02 04:39:46;;;;;;;7.47;3.23;;;;;;;-0.74;66.08;99988.66;4858891;29;20068;-73
2022/04/02 04:42:14;;;;;;;9.00;2.53;;;;;;;-0.81;66.99;99990.19;4860851;29;20077;-73
2022/04/02 04:44:40;;;;;;;5.43;2.07;;;;;;;-0.76;67.21;99999.00;4861289;29;20037;-73
2022/04/02 04:47:07;;;;;;;4.43;2.27;;;;;;;-0.71;66.63;99999.09;4856949;29;20393;-74
2022/04/02 04:49:38;;;;;;;8.43;2.90;;;;;;;-0.72;67.25;99997.38;4860822;29;20504;-73
2022/04/02 04:52:07;;;;;;;6.43;2.87;;;;;;;-0.69;66.68;100000.91;4857357;29;20043;-73
2022/04/02 04:54:34;;;;;;;5.73;2.43;;;;;;;-0.61;66.61;100006.34;4861237;29;20487;-73
2022/04/02 04:57:06;;;;;;;8.37;2.67;;;;;;;-0.59;67.19;100003.81;4860469;29;20041;-74
2022/04/02 04:59:31;;;;;;;7.97;2.77;;;;;;;-0.48;66.80;100005.00;4857389;29;20028;-73
2022/04/02 05:01:59;;;;;;;8.23;2.83;;;;;;;-0.45;66.70;100005.97;4859286;29;20408;-73
2022/04/02 05:04:24;;;;;;;5.10;2.33;;;;;;;-0.38;66.90;100016.53;4859069;29;20037;-74
2022/04/02 05:06:53;;;;;;;6.27;2.33;;;;;;;-0.42;66.53;100014.66;4858947;29;20040;-73
2022/04/02 05:09:20;;;;;;;8.07;2.30;;;;;;;-0.33;66.46;100015.81;4859163;29;20039;-73
2022/04/02 05:11:47;;;;;;;9.00;2.97;;;;;;;-0.32;67.21;100021.88;4858853;29;20032;-73
2022/04/02 05:14:16;;;;;;;5.13;2.27;;;;;;;-0.24;66.31;100023.88;4867400;29;20400;-74
2022/04/02 05:19:13;;;;;;;8.80;2.33;;;;;;;-0.30;66.88;100023.69;4871450;29;20543;-74
2022/04/02 05:21:39;;;;;;;5.73;2.23;;;;;;;-0.23;67.01;100024.75;4866763;29;20041;-73
2022/04/02 05:24:08;;;;;;;6.87;2.53;;;;;;;-0.17;66.58;100037.88;4867647;29;20068;-73
2022/04/02 05:26:37;;;;;;;5.73;2.40;;;;;;;-0.24;66.80;100034.25;4882121;29;20065;-74
2022/04/02 05:29:08;;;;;;;7.47;2.63;;;;;;;-0.28;66.97;100039.31;4884567;29;20409;-74
2022/04/02 05:31:33;;;;;;;6.80;1.97;;;;;;;-0.22;66.63;100039.47;4866784;29;20050;-74
2022/04/02 05:33:59;;;;;;;5.20;2.33;;;;;;;-0.16;67.05;100037.03;4883868;29;20045;-74
2022/04/02 05:36:24;;;;;;;7.50;2.50;;;;;;;-0.17;66.82;100048.25;4867391;29;20710;-74
2022/04/02 05:38:51;;;;;;;4.97;2.13;;;;;;;-0.15;66.85;100046.59;4882273;29;20037;-74
2022/04/02 05:41:17;;;;;;;7.33;3.00;;;;;;;-0.13;67.14;100044.94;4886275;29;20047;-74
2022/04/02 05:43:42;;;;;;;4.37;2.10;;;;;;;-0.14;67.38;100048.34;4873613;29;20054;-74
2022/04/02 05:46:07;;;;;;;7.53;3.00;;;;;;;-0.10;67.71;100050.22;4869787;29;20048;-74
2022/04/02 05:48:33;;;;;;;6.87;2.60;;;;;;;-0.15;67.51;100056.97;4867463;29;20144;-74
2022/04/02 05:50:59;;;;;;;12.07;2.67;;;;;;;-0.11;67.07;100057.94;4867105;29;20069;-74
2022/04/02 05:53:24;;;;;;;5.87;2.60;;;;;;;-0.06;67.11;100052.03;4869510;29;20128;-74
2022/04/02 05:55:50;;;;;;;7.43;2.30;;;;;;;-0.08;67.16;100053.72;4873562;29;20049;-71
2022/04/02 05:58:15;;;;;;;4.83;2.20;;;;;;;-0.10;67.50;100049.34;4871583;29;20033;-71
2022/04/02 06:00:41;;;;;;;6.40;2.40;;;;;;;-0.04;67.73;100059.88;4890663;29;20049;-71
2022/04/02 06:03:06;;;;;;;10.73;4.53;;;;;;;-0.03;68.16;100057.34;4872300;29;20460;-71
2022/04/02 06:05:32;;;;;;;5.10;2.23;;;;;;;0.08;66.94;100070.63;4866440;29;20041;-71
2022/04/02 06:07:57;;;;;;;7.20;2.80;;;;;;;-0.04;68.04;100065.94;4873096;29;20592;-71
2022/04/02 06:10:22;;;;;;;6.57;2.73;;;;;;;0.02;67.64;100060.03;4871721;29;20080;-71
2022/04/02 06:12:50;;;;;;;5.03;2.13;;;;;;;0.20;67.11;100075.25;4874792;29;20120;-71
2022/04/02 06:15:15;;;;;;;9.00;2.93;;;;;;;0.31;66.46;100072.97;4875592;29;20044;-72
2022/04/02 06:17:41;;;;;;;6.90;2.47;;;;;;;0.35;66.52;100077.41;4871907;29;20051;-72
2022/04/02 06:20:07;;;;;;;5.00;1.93;;;;;;;0.43;66.95;100084.56;4876259;29;20040;-72
2022/04/02 06:22:34;;;;;;;7.77;2.23;;;;;;;0.49;66.62;100081.25;4885552;29;20037;-72
2022/04/02 06:24:59;;;;;;;7.00;2.30;;;;;;;0.52;66.00;100083.06;4869760;29;20038;-72
2022/04/02 06:27:25;;;;;;;7.97;2.07;;;;;;;0.58;66.17;100088.44;4875830;29;20112;-72
2022/04/02 06:29:50;;;;;;;5.70;2.00;;;;;;;0.61;65.78;100084.19;4876871;29;20449;-72
2022/04/02 06:32:16;;;;;;;5.75;2.15;;;;;;;0.79;65.82;100089.00;4877179;29;20116;-72
2022/04/02 06:34:41;;;;;;;7.90;2.40;;;;;;;0.83;65.32;100079.56;4893914;29;20033;-72
2022/04/02 06:37:07;;;;;;;6.93;2.33;;;;;;;0.90;65.28;100089.28;4878328;29;20041;-71
2022/04/02 06:39:32;;;;;;;5.63;2.20;;;;;;;1.02;65.17;100086.09;4881168;29;20404;-71
2022/04/02 06:41:58;;;;;;;8.43;2.87;;;;;;;1.09;64.19;100085.41;4879142;29;20445;-71
2022/04/02 06:44:30;;;;;;;6.30;2.05;;;;;;;1.01;64.24;100097.34;4892274;29;20500;-71
2022/04/02 06:46:57;;;;;;;8.27;3.10;;;;;;;1.06;65.00;100083.63;4877699;29;20096;-71
2022/04/02 06:49:22;;;;;;;14.60;5.78;;;;;;;1.17;64.22;100099.47;4881209;29;20119;-72
2022/04/02 06:51:47;;;;;;;6.32;2.30;;;;;;;1.25;63.46;100095.34;4878362;29;20047;-72
2022/04/02 06:54:12;;;;;;;6.85;2.03;;;;;;;1.19;63.94;100091.72;4877116;29;20043;-71
2022/04/02 06:56:38;;;;;;;4.68;2.08;;;;;;;1.23;63.79;100093.53;4876141;29;20079;-72
2022/04/02 06:59:03;;;;;;;8.75;2.15;;;;;;;1.39;63.48;100103.50;4875029;29;20120;-71
2022/04/02 07:01:29;;;;;;;7.05;2.28;;;;;;;1.42;62.72;100098.34;4871461;29;20076;-71
2022/04/02 07:03:54;;;;;;;8.02;2.40;;;;;;;1.44;62.90;100100.97;4878778;29;20036;-72
2022/04/02 07:06:19;;;;;;;5.88;2.00;;;;;;;1.56;63.27;100101.28;4875426;29;20108;-72
2022/04/02 07:08:44;;;;;;;6.70;1.95;;;;;;;1.56;62.42;100096.06;4872647;29;20066;-71
2022/04/02 07:11:10;;;;;;;5.15;2.10;;;;;;;1.63;62.33;100102.31;4871814;29;20057;-72
2022/04/02 07:13:35;;;;;;;5.20;2.40;;;;;;;1.73;61.89;100105.16;4869888;29;20497;-71
2022/04/02 07:16:02;;;;;;;6.90;2.72;;;;;;;1.75;61.68;100102.56;4869834;29;20069;-72
2022/04/02 07:18:28;;;;;;;7.85;2.10;;;;;;;1.81;61.30;100100.13;4871205;29;20153;-71
2022/04/02 07:20:56;;;;;;;6.65;2.13;;;;;;;2.02;61.19;100097.09;4873534;29;20124;-72
2022/04/02 07:23:22;;;;;;;5.07;2.00;;;;;;;2.09;60.59;100101.56;4884258;29;20039;-72
2022/04/02 07:25:54;;;;;;;7.38;2.67;;;;;;;2.12;60.45;100109.47;4887695;29;20037;-72
2022/04/02 07:28:21;;;;;;;6.05;1.70;;;;;;;2.17;60.79;100100.03;4871422;29;20049;-72
2022/04/02 07:30:46;;;;;;;5.60;2.25;;;;;;;2.21;60.18;100100.97;4877312;29;20036;-72
2022/04/02 07:33:21;;;;;;;7.05;2.20;;;;;;;2.34;59.85;100107.31;4893403;29;20093;-71
2022/04/02 07:35:54;;;;;;;7.45;2.30;;;;;;;2.55;58.89;100112.94;4877994;29;20081;-72
2022/04/02 07:38:22;;;;;;;10.10;2.38;;;;;;;2.64;57.61;100104.41;4879260;29;20039;-72
2022/04/02 07:41:02;;;;;;;8.80;2.45;;;;;;;2.66;56.99;100112.28;4876286;29;20063;-71
2022/04/02 07:43:40;;;;;;;7.53;2.28;;;;;;;2.82;55.52;100119.53;4877896;29;20444;-71
2022/04/02 07:46:13;;;;;;;5.43;2.20;;;;;;;2.73;55.98;100112.41;4893429;29;20048;-71
2022/04/02 07:48:41;;;;;;;9.00;2.10;;;;;;;2.85;56.04;100103.94;4878016;29;20033;-72
2022/04/02 07:51:12;;;;;;;4.85;1.88;;;;;;;3.01;55.34;100111.19;4879533;29;20068;-72
2022/04/02 07:53:46;;;;;;;8.60;3.50;;;;;;;3.24;55.30;100108.97;4877891;29;20041;-72
2022/04/02 07:56:27;;;;;;;5.43;2.00;;;;;;;3.43;53.54;100102.34;4876808;29;20041;-72
2022/04/02 07:58:59;;;;;;;4.63;1.70;;;;;;;3.49;52.97;100105.03;4876750;29;20039;-72
2022/04/02 08:01:24;;;;;;;5.38;1.77;;;;;;;3.48;53.25;100107.59;4871982;29;20093;-73
2022/04/02 08:03:52;;;;;;;5.35;1.80;;;;;;;3.53;52.15;100099.84;4883881;29;20037;-72
2022/04/02 08:06:19;;;;;;;8.70;2.00;;;;;;;3.56;51.68;100100.75;4884820;29;20056;-72
2022/04/02 08:08:45;;;;;;;11.32;2.40;;;;;;;3.57;51.54;100102.53;4870264;29;20102;-73
2022/04/02 08:11:12;;;;;;;8.57;2.75;;;;;;;3.65;50.91;100106.13;4872130;29;20025;-72
2022/04/02 08:13:40;;;;;;;4.60;2.00;;;;;;;3.63;48.78;100104.34;4868735;29;20128;-70
2022/04/02 08:16:05;;;;;;;4.30;1.80;;;;;;;3.63;48.28;100112.19;4868029;29;20029;-74
2022/04/02 08:18:31;;;;;;;5.00;1.77;;;;;;;3.85;47.73;100113.38;4868705;29;20140;-74
2022/04/02 08:20:56;;;;;;;8.57;2.78;;;;;;;3.84;47.10;100112.50;4881964;29;20061;-72
2022/04/02 08:23:29;;;;;;;6.97;2.10;;;;;;;4.01;47.61;100122.28;4882025;29;20108;-72
2022/04/02 08:26:25;;;;;;;3.78;1.70;;;;;;;4.03;46.32;100121.47;4867536;29;20044;-71
2022/04/02 08:29:24;;;;;;;5.35;1.70;;;;;;;4.02;46.18;100118.84;4873286;29;20045;-72
2022/04/02 08:32:26;;;;;;;4.15;1.67;;;;;;;4.29;46.40;100116.56;4869560;29;20071;-71
2022/04/02 08:35:08;;;;;;;5.60;1.90;;;;;;;4.28;44.93;100120.06;4870976;29;20045;-72
2022/04/02 08:38:13;;;;;;;3.42;1.27;;;;;;;4.35;44.57;100121.91;4867664;29;20048;-72
2022/04/02 08:41:06;;;;;;;7.43;1.60;;;;;;;4.25;43.48;100122.66;4861387;29;20050;-72
2022/04/02 08:44:06;;;;;;;6.65;1.70;;;;;;;4.27;43.62;100126.16;4873086;29;20041;-72
2022/04/02 08:46:50;;;;;;;4.60;1.42;;;;;;;4.42;44.46;100135.03;4869704;29;20045;-72
2022/04/02 08:49:29;;;;;;;6.05;2.30;;;;;;;4.58;44.38;100132.63;4872223;29;20037;-72
2022/04/02 08:52:13;;;;;;;6.10;2.45;;;;;;;4.79;43.71;100138.94;4870060;29;20064;-72
2022/04/02 08:54:40;;;;;;;4.95;1.60;;;;;;;4.91;42.97;100138.22;4874617;29;20393;-72
2022/04/02 08:57:35;;;;;;;4.88;1.48;;;;;;;4.83;41.16;100133.78;4869964;29;20044;-72
2022/04/02 09:00:08;;;;;;;4.25;1.45;;;;;;;4.81;40.37;100142.47;4872540;29;20144;-72
2022/04/02 09:02:52;;;;;;;7.90;1.50;;;;;;;5.04;40.21;100129.63;4867783;29;20049;-73
2022/04/02 09:05:51;;;;;;;3.95;1.35;;;;;;;4.94;39.91;100133.88;4871214;29;20072;-72
2022/04/02 09:08:38;;;;;;;7.60;1.50;;;;;;;4.95;39.22;100146.13;4870232;29;20073;-72
2022/04/02 09:11:23;;;;;;;5.82;1.40;;;;;;;5.08;39.23;100144.47;4872177;29;20060;-71
2022/04/02 09:14:12;;;;;;;5.55;1.23;;;;;;;5.27;38.21;100143.81;4872359;29;20112;-72
2022/04/02 09:17:00;;;;;;;7.10;1.30;;;;;;;5.46;38.03;100138.72;4870564;29;20088;-71
2022/04/02 09:19:30;;;;;;;4.18;1.20;;;;;;;5.53;37.70;100142.25;4867262;29;20034;-72
2022/04/02 09:22:06;;;;;;;3.55;1.42;;;;;;;5.58;37.53;100146.69;4867641;29;20041;-71
2022/04/02 09:24:37;;;;;;;2.80;1.20;;;;;;;5.77;38.08;100149.44;4873855;29;20037;-72
2022/04/02 09:27:39;;;;;;;6.45;1.60;;;;;;;5.87;37.16;100151.28;4866577;29;20059;-72
2022/04/02 09:30:35;;;;;;;3.83;1.50;;;;;;;6.05;37.45;100145.28;4866968;29;20087;-72
2022/04/02 09:33:38;;;;;;;4.38;1.70;;;;;;;6.04;37.21;100152.28;4882136;29;20041;-72
2022/04/02 09:36:18;;;;;;;3.38;1.40;;;;;;;6.20;37.00;100140.13;4869850;29;20041;-72
2022/04/02 09:38:43;;;;;;;3.72;1.38;;;;;;;5.98;36.49;100154.88;4869033;29;20500;-73
2022/04/02 09:41:18;;;;;;;8.18;1.63;;;;;;;5.97;36.91;100153.09;4881600;29;20045;-72
2022/04/02 09:44:03;;;;;;;6.25;1.35;;;;;;;6.15;35.38;100154.94;4876292;29;20477;-72
2022/04/02 09:46:59;;;;;;;3.78;1.33;;;;;;;6.12;35.71;100152.31;4875226;29;20061;-72
2022/04/02 09:49:49;;;;;;;3.78;1.60;;;;;;;6.35;35.58;100142.84;4869672;29;20048;-72
2022/04/02 09:52:22;;;;;;;6.25;2.22;;;;;;;6.59;35.70;100149.94;4884293;29;20044;-72
2022/04/02 09:55:03;;;;;;;3.30;1.20;;;;;;;6.64;34.65;100142.09;4874404;29;20652;-72
2022/04/02 09:57:51;;;;;;;5.15;2.05;;;;;;;6.54;34.63;100138.53;4871918;29;20045;-74
2022/04/02 10:00:16;;;;;;;2.85;1.25;;;;;;;6.45;33.70;100142.91;4873501;29;20154;-72
2022/04/02 10:03:20;;;;;;;3.38;1.23;;;;;;;6.37;33.40;100140.22;4878626;29;20190;-73
2022/04/02 10:06:15;;;;;;;5.78;2.15;;;;;;;6.53;34.30;100136.81;4887743;29;20061;-75
2022/04/02 10:09:11;;;;;;;5.70;1.10;;;;;;;6.85;34.02;100136.03;4875359;29;20041;-74
2022/04/02 10:11:39;;;;;;;2.80;1.35;;;;;;;6.93;33.61;100134.28;4875147;29;20397;-74
2022/04/02 10:14:04;;;;;;;4.25;1.13;;;;;;;6.95;32.66;100137.81;4885868;29;20140;-74
2022/04/02 10:16:31;;;;;;;4.30;1.40;;;;;;;7.20;33.61;100124.72;4867962;29;20516;-74
2022/04/02 10:18:59;;;;;;;4.72;1.40;;;;;;;7.09;32.90;100135.19;4869815;29;20037;-74
2022/04/02 10:21:27;;;;;;;5.50;1.70;;;;;;;7.06;32.65;100129.09;4869896;29;20047;-75
2022/04/02 10:24:11;;;;;;;4.05;1.60;;;;;;;7.02;33.19;100131.72;4867972;29;20037;-74
2022/04/02 10:26:39;;;;;;;3.30;1.10;;;;;;;7.33;33.50;100122.97;4867704;29;20037;-73
2022/04/02 10:29:13;;;;;;;5.25;1.55;;;;;;;7.80;32.49;100117.69;4872168;29;20049;-74
2022/04/02 10:31:50;;;;;;;2.42;1.10;;;;;;;7.82;31.89;100110.69;4872849;29;20049;-74
2022/04/02 10:34:34;;;;;;;3.53;1.10;;;;;;;7.71;31.17;100119.47;4870490;29;20052;-74
2022/04/02 10:37:09;;;;;;;3.40;1.30;;;;;;;7.95;31.64;100118.56;4869832;29;20102;-74
2022/04/02 10:39:42;;;;;;;3.63;1.20;;;;;;;8.09;32.14;100111.50;4884002;29;20038;-74
2022/04/02 10:42:10;;;;;;;7.28;1.70;;;;;;;8.06;31.79;100117.66;4872202;29;20044;-74
2022/04/02 10:44:45;;;;;;;5.63;1.42;;;;;;;7.78;32.20;100116.84;4873288;29;20053;-74
2022/04/02 10:47:14;;;;;;;4.38;1.50;;;;;;;7.80;30.88;100119.44;4872619;29;20029;-74
2022/04/02 10:49:40;;;;;;;3.45;1.35;;;;;;;7.71;31.21;100119.47;4872858;29;20040;-74
2022/04/02 10:52:11;;;;;;;6.55;1.40;;;;;;;7.88;31.49;100117.69;4874572;29;20112;-74
2022/04/02 10:54:39;;;;;;;3.95;1.67;;;;;;;7.82;31.06;100118.56;4867842;29;20040;-74
2022/04/02 10:57:05;;;;;;;3.97;1.48;;;;;;;7.51;31.12;100128.22;4871050;29;20708;-74
2022/04/02 10:59:31;;;;;;;10.05;1.80;;;;;;;7.37;31.80;100120.38;4875726;29;20029;-75
2022/04/02 11:02:00;;;;;;;4.63;1.30;;;;;;;7.56;31.68;100120.34;4889698;29;20080;-74
2022/04/02 11:04:30;;;;;;;4.10;2.08;;;;;;;7.67;31.43;100116.84;4875892;29;20089;-74
2022/04/02 11:06:57;;;;;;;4.68;1.58;;;;;;;7.80;31.13;100111.56;4885368;29;20051;-74
2022/04/02 11:09:36;;;;;;;4.15;1.40;;;;;;;7.55;30.53;100113.38;4869027;29;20045;-74
2022/04/02 11:12:10;;;;;;;5.28;1.50;;;;;;;7.49;30.75;100115.97;4869570;29;20141;-74
2022/04/02 11:14:52;;;;;;;4.00;1.50;;;;;;;7.72;30.20;100122.09;4872229;29;20029;-74
2022/04/02 11:17:32;;;;;;;9.25;1.73;;;;;;;7.54;29.85;100130.84;4868698;29;20041;-75
2022/04/02 11:20:14;;;;;;;3.00;1.30;;;;;;;7.87;30.36;100121.19;4873572;29;20041;-76
2022/04/02 11:22:47;;;;;;;7.88;1.70;;;;;;;8.26;29.62;100127.25;4872281;29;20045;-74
2022/04/02 11:25:24;;;;;;;3.95;1.33;;;;;;;8.54;29.82;100114.88;4912294;23;20101;-73
2022/04/02 11:27:54;;;;;;;4.60;1.50;;;;;;;8.91;29.61;100119.97;4891754;29;20044;-74
2022/04/02 11:30:21;;;;;;;5.32;1.55;;;;;;;8.72;28.20;100117.44;4895331;29;20040;-75
2022/04/02 11:32:50;;;;;;;5.00;1.60;;;;;;;8.50;29.61;100119.28;4896814;29;20036;-76
2022/04/02 11:35:23;;;;;;;4.85;1.55;;;;;;;8.45;29.91;100118.44;4894673;29;20040;-75
2022/04/02 11:38:07;;;;;;;5.25;2.00;;;;;;;8.41;29.62;100121.06;4889448;29;21525;-76
2022/04/02 11:40:37;;;;;;;3.13;1.30;;;;;;;8.39;29.62;100122.81;4889007;29;20072;-76
2022/04/02 11:43:03;;;;;;;3.72;1.60;;;;;;;8.83;30.28;100112.13;4887813;29;20555;-76
2022/04/02 11:45:32;;;;;;;3.20;1.58;;;;;;;9.29;29.76;100116.19;4888227;29;20612;-76
2022/04/02 11:48:19;;;;;;;5.32;1.60;;;;;;;9.41;29.08;100106.44;4888819;29;20045;-76
2022/04/02 11:50:45;;;;;;;4.70;1.48;;;;;;;9.56;28.87;100113.34;4889779;29;20115;-75
2022/04/02 11:53:12;;;;;;;4.93;2.00;;;;;;;9.39;29.61;100116.09;4881900;29;20040;-75
2022/04/02 11:55:39;;;;;;;6.85;2.00;;;;;;;9.48;28.64;100107.25;4890086;29;20113;-75